Time;durP1;ratioP1;P1;durP2;ratioP2;P2;SDS_P1;SDS_P2;PMS_P1;PMS_P2;Temp;Humidity;BMP_temperature;BMP_pressure;BME280_temperature;BME280_humidity;BME280_pressure;Samples;Min_cycle;Max_cycle;Signal;HPM_P1;HPM_P2
2021/06/12 00:00:16;;;;;;;1.60;1.50;;;22.00;59.80;;;;;;3122295;28;20049;-79
2021/06/12 00:01:47;;;;;;;1.77;1.40;;;22.00;59.80;;;;;;3123003;28;20192;-78
2021/06/12 00:03:18;;;;;;;1.30;1.20;;;22.00;59.80;;;;;;3123746;28;20107;-79
2021/06/12 00:04:49;;;;;;;1.40;1.30;;;22.00;59.80;;;;;;3123462;28;20513;-78
2021/06/12 00:06:20;;;;;;;1.70;1.23;;;22.00;59.80;;;;;;3123451;28;20080;-77
2021/06/12 00:07:52;;;;;;;1.25;1.15;;;22.00;60.50;;;;;;3122836;28;20045;-78
2021/06/12 00:09:23;;;;;;;1.30;1.20;;;22.00;59.80;;;;;;3123901;28;20050;-78
2021/06/12 00:10:54;;;;;;;1.45;1.20;;;22.00;59.80;;;;;;3123606;28;20081;-79
2021/06/12 00:12:26;;;;;;;1.50;1.30;;;22.00;59.80;;;;;;3122608;28;20042;-78
2021/06/12 00:13:58;;;;;;;1.42;1.30;;;22.00;59.80;;;;;;3123358;28;20049;-78
2021/06/12 00:15:28;;;;;;;2.45;1.27;;;22.00;59.90;;;;;;3122713;28;20473;-77
2021/06/12 00:16:59;;;;;;;1.73;1.30;;;22.00;59.80;;;;;;3122743;28;20041;-78
2021/06/12 00:18:30;;;;;;;1.33;1.20;;;22.00;59.80;;;;;;3123435;28;20073;-78
2021/06/12 00:20:02;;;;;;;1.58;1.48;;;22.00;60.50;;;;;;3123092;28;20679;-78
2021/06/12 00:21:36;;;;;;;1.73;1.40;;;22.00;59.80;;;;;;3122633;28;20061;-78
2021/06/12 00:23:07;;;;;;;1.02;1.00;;;22.00;59.80;;;;;;3123324;28;20045;-78
2021/06/12 00:24:38;;;;;;;1.40;1.30;;;22.00;59.90;;;;;;3123089;28;20053;-78
2021/06/12 00:26:09;;;;;;;1.50;1.20;;;22.00;59.80;;;;;;3123451;28;20188;-78
2021/06/12 00:27:41;;;;;;;1.75;1.35;;;22.00;59.90;;;;;;3122682;28;20057;-79
2021/06/12 00:29:12;;;;;;;1.30;1.20;;;22.00;59.80;;;;;;3123211;28;20077;-78
2021/06/12 00:30:43;;;;;;;1.23;1.13;;;22.00;59.90;;;;;;3121953;28;20099;-78
2021/06/12 00:32:14;;;;;;;1.70;1.20;;;22.00;59.80;;;;;;3122615;28;20038;-79
2021/06/12 00:33:45;;;;;;;1.58;1.23;;;22.00;59.80;;;;;;3122807;28;20050;-78
2021/06/12 00:35:16;;;;;;;1.70;1.27;;;22.00;59.80;;;;;;3123383;28;20077;-78
2021/06/12 00:36:47;;;;;;;1.48;1.30;;;22.00;59.90;;;;;;3122644;28;20041;-78
2021/06/12 00:38:18;;;;;;;1.30;1.10;;;22.00;59.90;;;;;;3123506;28;20045;-79
2021/06/12 00:39:49;;;;;;;1.30;1.20;;;22.00;59.80;;;;;;3123169;28;20841;-78
2021/06/12 00:41:20;;;;;;;1.65;1.45;;;22.00;60.60;;;;;;3123147;28;20057;-78
2021/06/12 00:42:53;;;;;;;1.40;1.30;;;22.00;59.80;;;;;;3122575;28;20038;-78
2021/06/12 00:44:24;;;;;;;1.15;1.10;;;22.00;59.80;;;;;;3122982;28;20129;-78
2021/06/12 00:45:55;;;;;;;1.50;1.10;;;22.00;59.80;;;;;;3122252;28;20087;-78
2021/06/12 00:47:26;;;;;;;1.35;1.25;;;22.00;59.80;;;;;;3122484;28;20083;-78
2021/06/12 00:48:57;;;;;;;1.35;1.25;;;22.00;59.90;;;;;;3123008;28;20095;-78
2021/06/12 00:50:29;;;;;;;1.60;1.40;;;22.00;59.80;;;;;;3122924;28;20411;-78
2021/06/12 00:52:00;;;;;;;1.30;1.20;;;22.00;59.80;;;;;;3122916;28;20061;-79
2021/06/12 00:53:38;;;;;;;1.60;1.40;;;22.00;59.90;;;;;;3123337;28;20076;-78
2021/06/12 00:55:11;;;;;;;1.38;1.27;;;22.00;60.00;;;;;;3123522;28;20456;-79
2021/06/12 00:56:42;;;;;;;1.23;1.13;;;22.00;59.90;;;;;;3122755;28;20045;-78
2021/06/12 00:58:15;;;;;;;1.40;1.17;;;22.00;59.90;;;;;;3123081;28;20446;-78
2021/06/12 00:59:46;;;;;;;1.23;1.13;;;22.00;59.80;;;;;;3122658;28;20091;-78
2021/06/12 01:01:17;;;;;;;1.48;1.20;;;22.00;59.90;;;;;;3122492;28;20092;-78
2021/06/12 01:02:49;;;;;;;1.15;1.08;;;22.00;60.00;;;;;;3122302;28;20132;-78
2021/06/12 01:04:20;;;;;;;1.50;1.30;;;22.00;59.90;;;;;;3122821;28;20049;-78
2021/06/12 01:05:51;;;;;;;1.30;1.15;;;22.00;60.00;;;;;;3123020;28;20493;-78
2021/06/12 01:07:22;;;;;;;1.52;1.30;;;22.00;59.80;;;;;;3122528;28;20088;-78
2021/06/12 01:08:53;;;;;;;1.50;1.40;;;22.00;60.00;;;;;;3122942;28;20562;-79
2021/06/12 01:10:24;;;;;;;2.03;1.30;;;22.00;59.90;;;;;;3122176;28;20104;-78
2021/06/12 01:12:02;;;;;;;1.40;1.30;;;22.00;59.90;;;;;;3122450;28;20064;-78
2021/06/12 01:13:41;;;;;;;1.60;1.40;;;22.00;59.90;;;;;;3122765;28;20053;-78
2021/06/12 01:15:13;;;;;;;1.40;1.30;;;22.00;59.90;;;;;;3122200;28;20501;-79
2021/06/12 01:16:45;;;;;;;1.35;1.15;;;22.00;59.80;;;;;;3122116;28;20045;-79
2021/06/12 01:18:17;;;;;;;1.30;1.20;;;22.00;59.80;;;;;;3122874;28;20046;-78
2021/06/12 01:20:03;;;;;;;1.30;1.20;;;22.00;59.80;;;;;;3122807;28;20292;-78
2021/06/12 01:21:35;;;;;;;1.40;1.30;;;22.00;59.80;;;;;;3122284;28;20041;-78
2021/06/12 01:23:20;;;;;;;1.67;1.17;;;22.00;59.80;;;;;;3122966;28;20080;-78
2021/06/12 01:25:03;;;;;;;1.20;1.10;;;22.00;59.80;;;;;;3122984;28;20052;-78
2021/06/12 01:27:08;;;;;;;1.40;1.30;;;22.00;60.00;;;;;;3121952;28;20089;-78
2021/06/12 01:28:58;;;;;;;2.17;1.42;;;22.00;59.90;;;;;;3064769;28;20118;-78
2021/06/12 01:30:31;;;;;;;1.75;1.30;;;22.00;59.90;;;;;;3121788;28;20056;-78
2021/06/12 01:32:02;;;;;;;1.23;1.13;;;22.00;59.90;;;;;;3122187;28;20052;-78
2021/06/12 01:33:33;;;;;;;1.42;1.30;;;22.00;59.90;;;;;;3122444;28;20050;-78
2021/06/12 01:35:05;;;;;;;1.30;1.20;;;22.00;59.90;;;;;;3122780;28;20061;-78
2021/06/12 01:36:37;;;;;;;1.73;1.00;;;22.00;59.90;;;;;;3122200;28;20076;-78
2021/06/12 01:38:09;;;;;;;2.10;1.40;;;22.00;59.90;;;;;;3122971;28;20049;-78
2021/06/12 01:39:40;;;;;;;1.30;1.20;;;22.00;60.00;;;;;;3122332;28;20057;-79
2021/06/12 01:41:14;;;;;;;2.67;1.30;;;22.00;60.00;;;;;;3122932;28;20327;-78
2021/06/12 01:42:47;;;;;;;2.05;1.40;;;22.00;59.90;;;;;;3122158;28;20108;-78
2021/06/12 01:44:18;;;;;;;1.48;1.38;;;22.00;60.00;;;;;;3122458;28;20081;-78
2021/06/12 01:45:51;;;;;;;1.25;1.15;;;22.00;59.90;;;;;;3122000;28;20060;-78
2021/06/12 01:47:21;;;;;;;1.20;1.10;;;22.00;59.90;;;;;;3122184;28;20049;-78
2021/06/12 01:48:52;;;;;;;1.70;1.55;;;22.00;59.90;;;;;;3122658;28;20049;-78
2021/06/12 01:50:24;;;;;;;1.73;1.63;;;22.00;59.90;;;;;;3122457;28;20532;-78
2021/06/12 01:51:55;;;;;;;1.65;1.27;;;22.00;59.90;;;;;;3122235;28;20069;-79
2021/06/12 01:53:30;;;;;;;1.60;1.20;;;22.00;59.90;;;;;;3122678;28;20045;-79
2021/06/12 01:55:01;;;;;;;1.35;1.20;;;22.00;59.80;;;;;;3122761;28;20053;-78
2021/06/12 01:56:33;;;;;;;1.38;1.27;;;22.00;59.80;;;;;;3121767;28;20119;-76
2021/06/12 01:58:05;;;;;;;1.50;1.40;;;22.00;59.90;;;;;;3122576;28;20073;-78
2021/06/12 01:59:36;;;;;;;2.80;1.42;;;22.00;59.90;;;;;;3122417;28;20055;-78
2021/06/12 02:01:10;;;;;;;1.50;1.10;;;22.00;59.80;;;;;;3121586;28;20069;-79
2021/06/12 02:02:41;;;;;;;1.25;1.13;;;22.00;59.90;;;;;;3122016;28;20088;-78
2021/06/12 02:04:12;;;;;;;1.50;1.40;;;22.00;60.00;;;;;;3122258;28;20084;-79
2021/06/12 02:05:43;;;;;;;1.52;1.42;;;22.00;59.90;;;;;;3122413;28;20046;-78
2021/06/12 02:07:14;;;;;;;1.30;1.20;;;22.00;60.00;;;;;;3122033;28;20069;-78
2021/06/12 02:08:46;;;;;;;1.40;1.30;;;22.00;59.90;;;;;;3122782;28;20088;-77
2021/06/12 02:10:17;;;;;;;1.33;1.23;;;22.00;59.80;;;;;;3122362;28;20115;-79
2021/06/12 02:11:48;;;;;;;1.30;1.20;;;22.00;59.80;;;;;;3121610;28;20046;-78
2021/06/12 02:13:21;;;;;;;1.60;1.27;;;22.00;59.90;;;;;;3122540;28;20111;-78
2021/06/12 02:14:52;;;;;;;1.67;1.30;;;22.00;59.90;;;;;;3122851;28;20199;-78
2021/06/12 02:16:24;;;;;;;1.25;1.15;;;22.00;59.90;;;;;;3121564;28;20461;-78
2021/06/12 02:17:57;;;;;;;2.30;1.20;;;22.00;59.90;;;;;;3122105;28;20050;-78
2021/06/12 02:19:28;;;;;;;1.48;1.38;;;22.00;59.90;;;;;;3122812;28;20049;-78
2021/06/12 02:20:59;;;;;;;1.70;1.40;;;22.00;60.00;;;;;;3122574;28;20042;-78
2021/06/12 02:22:30;;;;;;;1.45;1.35;;;22.00;59.90;;;;;;3123403;28;20096;-77
2021/06/12 02:24:01;;;;;;;1.75;1.40;;;22.00;59.90;;;;;;3124583;28;20080;-78
2021/06/12 02:25:32;;;;;;;1.33;1.23;;;22.00;59.90;;;;;;3124799;28;20081;-78
2021/06/12 02:27:04;;;;;;;1.40;1.30;;;22.00;60.00;;;;;;3123841;28;20038;-79
2021/06/12 02:28:35;;;;;;;1.52;1.30;;;22.00;60.00;;;;;;3124511;28;20091;-78
2021/06/12 02:30:07;;;;;;;1.52;1.13;;;22.00;59.90;;;;;;3123772;28;20050;-79
2021/06/12 02:31:41;;;;;;;1.15;1.10;;;22.00;59.90;;;;;;3124055;28;20088;-79
2021/06/12 02:33:14;;;;;;;1.42;1.30;;;22.00;60.00;;;;;;3124614;28;20080;-78
2021/06/12 02:34:45;;;;;;;1.80;1.27;;;22.00;60.00;;;;;;3124549;28;20050;-79
2021/06/12 02:36:16;;;;;;;1.45;1.23;;;22.00;59.90;;;;;;3124805;28;20107;-78
2021/06/12 02:37:47;;;;;;;1.98;1.35;;;22.00;60.00;;;;;;3123909;28;20077;-78
2021/06/12 02:39:18;;;;;;;1.42;1.33;;;22.00;59.90;;;;;;3124709;28;20510;-78
2021/06/12 02:40:50;;;;;;;1.50;1.20;;;22.00;59.90;;;;;;3124192;28;20088;-77
2021/06/12 02:42:21;;;;;;;1.43;1.30;;;22.00;59.90;;;;;;3123897;28;20064;-78
2021/06/12 02:43:53;;;;;;;1.30;1.20;;;22.00;59.90;;;;;;3124419;28;20509;-79
2021/06/12 02:45:24;;;;;;;2.60;1.50;;;22.00;59.90;;;;;;3123386;28;20111;-78
2021/06/12 02:47:00;;;;;;;1.30;1.20;;;22.00;59.90;;;;;;3123933;28;20095;-78
2021/06/12 02:48:32;;;;;;;1.70;1.35;;;22.00;60.00;;;;;;3124215;28;20077;-78
2021/06/12 02:50:04;;;;;;;1.42;1.23;;;22.00;59.90;;;;;;3123677;28;20053;-78
2021/06/12 02:51:36;;;;;;;1.30;1.20;;;22.00;59.90;;;;;;3122956;28;20116;-78
2021/06/12 02:53:08;;;;;;;1.20;1.10;;;22.00;60.00;;;;;;3124357;28;20069;-78
2021/06/12 02:54:40;;;;;;;1.58;1.48;;;22.00;60.00;;;;;;3124313;28;20077;-77
2021/06/12 02:56:11;;;;;;;1.40;1.30;;;22.00;60.00;;;;;;3124710;28;20077;-79
2021/06/12 02:57:45;;;;;;;1.50;1.40;;;22.00;60.00;;;;;;3123757;28;20446;-78
2021/06/12 02:59:17;;;;;;;1.75;1.38;;;21.90;59.80;;;;;;3124554;28;20049;-78
2021/06/12 03:00:47;;;;;;;1.63;1.40;;;22.00;60.00;;;;;;3123257;28;20096;-79
2021/06/12 03:02:20;;;;;;;1.75;1.33;;;22.00;60.00;;;;;;3123804;28;20287;-78
2021/06/12 03:03:51;;;;;;;1.88;1.30;;;22.00;60.00;;;;;;3124387;28;20049;-78
2021/06/12 03:05:25;;;;;;;1.30;1.20;;;22.00;60.00;;;;;;3124205;28;20104;-78
2021/06/12 03:06:56;;;;;;;1.40;1.30;;;22.00;60.00;;;;;;3123786;28;20049;-79
2021/06/12 03:08:29;;;;;;;1.38;1.27;;;22.00;60.00;;;;;;3124067;28;20469;-78
2021/06/12 03:10:00;;;;;;;1.58;1.48;;;22.00;60.00;;;;;;3123914;28;20498;-78
2021/06/12 03:11:31;;;;;;;1.63;1.50;;;22.00;60.00;;;;;;3123767;28;20077;-78
2021/06/12 03:13:05;;;;;;;1.45;1.30;;;22.00;60.00;;;;;;3124641;28;20045;-78
2021/06/12 03:14:37;;;;;;;1.77;1.35;;;22.00;60.00;;;;;;3124469;28;20502;-78
2021/06/12 03:16:07;;;;;;;1.50;1.40;;;21.90;59.90;;;;;;3123395;28;20510;-78
2021/06/12 03:17:40;;;;;;;1.33;1.23;;;22.00;59.90;;;;;;3123544;28;20041;-78
2021/06/12 03:19:12;;;;;;;2.03;1.60;;;22.00;60.10;;;;;;3123769;28;20081;-78
2021/06/12 03:20:43;;;;;;;1.38;1.27;;;22.00;60.00;;;;;;3123799;28;20433;-78
2021/06/12 03:22:14;;;;;;;1.40;1.30;;;22.00;60.00;;;;;;3123647;28;20061;-78
2021/06/12 03:23:45;;;;;;;1.50;1.40;;;22.00;60.00;;;;;;3123693;28;20506;-78
2021/06/12 03:25:18;;;;;;;1.63;1.30;;;22.00;60.00;;;;;;3123794;28;20107;-78
2021/06/12 03:26:49;;;;;;;2.10;1.15;;;22.00;59.90;;;;;;3123583;28;20049;-78
2021/06/12 03:28:20;;;;;;;2.72;1.40;;;22.00;60.00;;;;;;3124000;28;20092;-79
2021/06/12 03:29:51;;;;;;;3.10;1.60;;;22.00;60.00;;;;;;3123879;28;20053;-78
2021/06/12 03:31:22;;;;;;;1.60;1.48;;;22.00;60.00;;;;;;3122855;28;20077;-78
2021/06/12 03:32:55;;;;;;;1.65;1.55;;;22.00;60.00;;;;;;3123043;28;20043;-78
2021/06/12 03:34:25;;;;;;;1.40;1.30;;;22.00;60.00;;;;;;3123696;28;20080;-79
2021/06/12 03:35:56;;;;;;;1.60;1.50;;;22.00;60.00;;;;;;3123889;28;20056;-78
2021/06/12 03:37:27;;;;;;;1.73;1.40;;;22.00;60.00;;;;;;3123131;28;20041;-77
2021/06/12 03:38:59;;;;;;;1.30;1.20;;;22.00;60.00;;;;;;3123949;28;20103;-77
2021/06/12 03:40:29;;;;;;;1.50;1.40;;;22.00;60.00;;;;;;3123471;28;20631;-77
2021/06/12 03:42:00;;;;;;;1.73;1.50;;;22.00;60.00;;;;;;3123231;28;20041;-78
2021/06/12 03:43:31;;;;;;;1.50;1.40;;;22.00;60.10;;;;;;3123671;28;20069;-77
2021/06/12 03:45:05;;;;;;;1.50;1.40;;;22.00;60.00;;;;;;3123983;28;20058;-77
2021/06/12 03:46:36;;;;;;;1.65;1.40;;;22.00;60.00;;;;;;3122648;28;20072;-78
2021/06/12 03:48:09;;;;;;;1.42;1.30;;;22.00;60.00;;;;;;3123673;28;20150;-78
2021/06/12 03:49:39;;;;;;;1.75;1.33;;;22.00;60.00;;;;;;3123225;28;20088;-77
2021/06/12 03:51:11;;;;;;;1.45;1.35;;;22.00;60.00;;;;;;3123584;28;20490;-78
2021/06/12 03:52:44;;;;;;;1.33;1.23;;;22.00;60.00;;;;;;3122874;28;20052;-78
2021/06/12 03:54:15;;;;;;;1.50;1.40;;;22.00;60.70;;;;;;3123388;28;20064;-78
2021/06/12 03:55:46;;;;;;;1.88;1.55;;;22.00;60.00;;;;;;3123635;28;20041;-78
2021/06/12 03:57:18;;;;;;;1.42;1.33;;;22.00;60.00;;;;;;3123068;28;20576;-78
2021/06/12 03:58:50;;;;;;;1.40;1.25;;;22.00;60.00;;;;;;3123414;28;20080;-79
2021/06/12 04:00:21;;;;;;;1.40;1.27;;;22.00;60.00;;;;;;3122555;28;20418;-79
2021/06/12 04:01:52;;;;;;;1.30;1.20;;;22.00;60.00;;;;;;3122892;28;20046;-77
2021/06/12 04:03:25;;;;;;;2.40;1.45;;;22.00;60.00;;;;;;3123567;28;20045;-77
2021/06/12 04:04:57;;;;;;;1.45;1.35;;;22.00;60.10;;;;;;3123711;28;20092;-78
2021/06/12 04:06:28;;;;;;;2.47;1.30;;;22.00;60.00;;;;;;3123692;28;20561;-78
2021/06/12 04:07:59;;;;;;;2.33;1.60;;;22.00;60.00;;;;;;3122567;28;20100;-78
2021/06/12 04:09:30;;;;;;;1.33;1.23;;;22.00;60.00;;;;;;3123390;28;20089;-78
2021/06/12 04:11:01;;;;;;;1.50;1.40;;;22.00;60.00;;;;;;3123376;28;20077;-78
2021/06/12 04:12:32;;;;;;;1.38;1.27;;;22.00;59.90;;;;;;3122840;28;20065;-78
2021/06/12 04:14:03;;;;;;;1.42;1.33;;;22.00;60.00;;;;;;3123152;28;20053;-79
2021/06/12 04:15:34;;;;;;;1.48;1.38;;;22.00;60.00;;;;;;3121063;28;20055;-78
2021/06/12 04:17:05;;;;;;;1.30;1.20;;;22.00;60.00;;;;;;3122853;28;20473;-78
2021/06/12 04:18:37;;;;;;;1.60;1.50;;;22.00;60.00;;;;;;3122853;28;20049;-78
2021/06/12 04:20:10;;;;;;;1.70;1.53;;;22.00;60.00;;;;;;3123216;28;20049;-78
2021/06/12 04:21:41;;;;;;;1.67;1.58;;;22.00;60.00;;;;;;3122803;28;20084;-77
2021/06/12 04:23:12;;;;;;;1.52;1.38;;;22.00;60.00;;;;;;3123212;28;20556;-79
2021/06/12 04:24:43;;;;;;;1.90;1.38;;;22.00;60.00;;;;;;3123202;28;20128;-78
2021/06/12 04:26:14;;;;;;;1.90;1.50;;;22.00;60.00;;;;;;3123401;28;20422;-77
2021/06/12 04:27:45;;;;;;;1.58;1.48;;;22.00;60.00;;;;;;3122902;28;20049;-78
2021/06/12 04:29:16;;;;;;;2.53;1.50;;;22.00;60.00;;;;;;3123285;28;20059;-78
2021/06/12 04:30:47;;;;;;;1.55;1.45;;;22.00;60.00;;;;;;3122272;28;20072;-77
2021/06/12 04:32:18;;;;;;;1.30;1.20;;;22.00;60.00;;;;;;3122625;28;20072;-78
2021/06/12 04:33:51;;;;;;;1.50;1.40;;;22.00;60.10;;;;;;3122877;28;20088;-78
2021/06/12 04:35:22;;;;;;;1.90;1.45;;;22.00;60.00;;;;;;3123684;28;20433;-78
2021/06/12 04:36:53;;;;;;;1.75;1.48;;;22.00;59.90;;;;;;3122030;28;20065;-78
2021/06/12 04:38:24;;;;;;;1.60;1.50;;;22.00;60.00;;;;;;3123433;28;20077;-78
2021/06/12 04:39:55;;;;;;;1.60;1.50;;;22.00;60.00;;;;;;3122867;28;20442;-77
2021/06/12 04:41:26;;;;;;;2.05;1.50;;;22.00;60.00;;;;;;3123336;28;20077;-77
2021/06/12 04:42:57;;;;;;;1.48;1.33;;;22.00;60.00;;;;;;3122396;28;20073;-78
2021/06/12 04:44:28;;;;;;;1.67;1.52;;;22.00;60.00;;;;;;3122403;28;20081;-78
2021/06/12 04:45:59;;;;;;;2.90;1.35;;;22.00;60.60;;;;;;3122254;28;20138;-78
2021/06/12 04:47:30;;;;;;;1.50;1.40;;;22.00;60.00;;;;;;3122398;28;20081;-77
2021/06/12 04:49:03;;;;;;;1.48;1.38;;;22.00;60.00;;;;;;3123008;28;20056;-78
2021/06/12 04:50:37;;;;;;;1.67;1.33;;;22.00;60.00;;;;;;3122681;28;20136;-77
2021/06/12 04:52:08;;;;;;;1.50;1.35;;;22.00;60.00;;;;;;3122656;28;20085;-78
2021/06/12 04:53:39;;;;;;;1.60;1.50;;;22.00;60.00;;;;;;3123079;28;20132;-78
2021/06/12 04:55:11;;;;;;;1.42;1.33;;;22.00;60.10;;;;;;3122943;28;20127;-77
2021/06/12 04:56:42;;;;;;;1.60;1.50;;;22.00;60.00;;;;;;3122296;28;20081;-78
2021/06/12 04:58:14;;;;;;;1.63;1.50;;;22.00;60.00;;;;;;3122828;28;20041;-78
2021/06/12 04:59:44;;;;;;;1.70;1.60;;;22.00;60.00;;;;;;3122890;28;20053;-78
2021/06/12 05:01:15;;;;;;;1.75;1.52;;;22.00;60.00;;;;;;3121900;28;20422;-77
2021/06/12 05:02:46;;;;;;;1.60;1.50;;;22.00;60.10;;;;;;3122165;28;20502;-77
2021/06/12 05:04:19;;;;;;;1.60;1.50;;;22.00;60.00;;;;;;3122860;28;20073;-77
2021/06/12 05:05:50;;;;;;;2.42;1.65;;;22.00;60.10;;;;;;3122615;28;20087;-78
2021/06/12 05:07:21;;;;;;;1.75;1.60;;;22.00;60.10;;;;;;3122401;28;20069;-77
2021/06/12 05:08:52;;;;;;;2.60;1.40;;;22.00;60.00;;;;;;3123014;28;20107;-78
2021/06/12 05:10:23;;;;;;;1.92;1.60;;;22.00;60.10;;;;;;3122316;28;20080;-78
2021/06/12 05:11:54;;;;;;;1.80;1.70;;;22.00;60.00;;;;;;3122475;28;20065;-78
2021/06/12 05:13:25;;;;;;;1.65;1.55;;;22.00;60.00;;;;;;3122853;28;20045;-78
2021/06/12 05:14:59;;;;;;;1.92;1.80;;;22.00;60.00;;;;;;3122872;28;20053;-78
2021/06/12 05:16:33;;;;;;;2.17;1.75;;;22.00;60.00;;;;;;3121477;28;20497;-78
2021/06/12 05:18:06;;;;;;;2.10;1.50;;;22.00;60.10;;;;;;3123029;28;20054;-77
2021/06/12 05:19:39;;;;;;;1.73;1.63;;;22.00;60.00;;;;;;3122820;28;20054;-77
2021/06/12 05:21:09;;;;;;;1.60;1.50;;;22.00;60.00;;;;;;3122902;28;20418;-77
2021/06/12 05:22:40;;;;;;;2.03;1.73;;;22.00;60.00;;;;;;3122199;28;20053;-77
2021/06/12 05:24:12;;;;;;;2.20;1.70;;;22.00;60.00;;;;;;3122947;28;20084;-77
2021/06/12 05:25:43;;;;;;;1.65;1.55;;;22.00;60.00;;;;;;3123133;28;20061;-78
2021/06/12 05:27:13;;;;;;;2.03;1.83;;;22.00;60.00;;;;;;3122354;28;20037;-78
2021/06/12 05:28:44;;;;;;;2.90;1.77;;;22.00;60.00;;;;;;3122904;28;20469;-78
2021/06/12 05:30:16;;;;;;;1.90;1.70;;;22.00;60.00;;;;;;3121813;28;20076;-79
2021/06/12 05:31:47;;;;;;;1.83;1.73;;;22.00;60.00;;;;;;3122329;28;20548;-78
2021/06/12 05:33:18;;;;;;;2.03;1.80;;;22.00;60.70;;;;;;3123016;28;20081;-77
2021/06/12 05:34:51;;;;;;;2.25;1.80;;;22.00;60.00;;;;;;3132205;23;20045;-81
2021/06/12 05:36:22;;;;;;;2.08;1.90;;;22.00;60.00;;;;;;3100820;28;20132;-81
2021/06/12 05:37:53;;;;;;;2.00;1.80;;;22.00;60.00;;;;;;3097257;28;20085;-80
2021/06/12 05:39:24;;;;;;;1.80;1.70;;;22.00;60.00;;;;;;3097782;28;20085;-81
2021/06/12 05:40:55;;;;;;;2.10;1.80;;;22.00;60.00;;;;;;3097533;28;20487;-81
2021/06/12 05:42:26;;;;;;;2.00;1.80;;;22.00;60.00;;;;;;3096739;28;20582;-80
2021/06/12 05:43:57;;;;;;;1.70;1.60;;;22.00;60.00;;;;;;3098165;28;20050;-80
2021/06/12 05:45:28;;;;;;;2.63;1.80;;;22.00;60.00;;;;;;3096667;28;20054;-80
2021/06/12 05:46:59;;;;;;;1.67;1.58;;;22.00;60.00;;;;;;3097211;28;20062;-81
2021/06/12 05:48:30;;;;;;;2.63;1.80;;;22.00;60.00;;;;;;3097957;28;20046;-78
2021/06/12 05:50:03;;;;;;;1.75;1.63;;;22.00;60.00;;;;;;3097357;28;20127;-80
2021/06/12 05:51:34;;;;;;;1.98;1.80;;;22.00;60.00;;;;;;3097078;28;20104;-81
2021/06/12 05:53:05;;;;;;;2.65;2.00;;;22.00;60.00;;;;;;3097506;28;20055;-79
2021/06/12 05:54:36;;;;;;;2.78;1.90;;;22.00;60.00;;;;;;3097597;28;20526;-80
2021/06/12 05:56:07;;;;;;;2.22;1.73;;;22.00;60.00;;;;;;3098877;28;20116;-81
2021/06/12 05:57:39;;;;;;;1.92;1.70;;;22.00;60.00;;;;;;3099255;28;20116;-80
2021/06/12 05:59:09;;;;;;;2.20;1.90;;;22.00;60.00;;;;;;3100138;28;20081;-81
2021/06/12 06:00:40;;;;;;;2.15;1.70;;;22.00;60.00;;;;;;3098898;28;20049;-80
2021/06/12 06:02:11;;;;;;;2.33;1.92;;;22.00;60.00;;;;;;3099390;28;20077;-82
2021/06/12 06:03:42;;;;;;;2.10;1.90;;;22.00;60.70;;;;;;3100010;28;20070;-81
2021/06/12 06:05:14;;;;;;;2.55;1.90;;;22.00;60.10;;;;;;3100110;28;20514;-81
2021/06/12 06:06:46;;;;;;;2.80;1.63;;;22.00;60.10;;;;;;3099319;28;20050;-79
2021/06/12 06:08:17;;;;;;;2.70;1.75;;;22.00;60.70;;;;;;3099941;28;20050;-80
2021/06/12 06:09:48;;;;;;;2.45;2.00;;;22.00;60.10;;;;;;3099512;28;20471;-80
2021/06/12 06:11:19;;;;;;;2.08;1.88;;;22.00;60.10;;;;;;3100143;28;20058;-80
2021/06/12 06:12:50;;;;;;;2.47;2.10;;;22.00;60.10;;;;;;3098734;28;20088;-80
2021/06/12 06:14:21;;;;;;;2.17;1.98;;;22.00;60.20;;;;;;3099596;28;20078;-81
2021/06/12 06:15:52;;;;;;;2.53;2.05;;;22.00;60.20;;;;;;3098753;28;20047;-81
2021/06/12 06:17:23;;;;;;;2.90;1.77;;;22.00;60.10;;;;;;3099108;28;20077;-79
2021/06/12 06:18:54;;;;;;;2.63;1.92;;;22.00;60.20;;;;;;3099741;28;20082;-80
2021/06/12 06:20:27;;;;;;;2.33;1.95;;;22.00;60.20;;;;;;3099620;28;20077;-79
2021/06/12 06:21:58;;;;;;;3.88;1.98;;;22.00;60.20;;;;;;3099209;28;20073;-81
2021/06/12 06:23:29;;;;;;;2.10;1.90;;;22.00;60.30;;;;;;3099459;28;20050;-79
2021/06/12 06:25:00;;;;;;;2.42;1.95;;;22.00;60.30;;;;;;3099615;28;20073;-81
2021/06/12 06:26:31;;;;;;;2.60;2.10;;;22.00;60.20;;;;;;3099065;28;20050;-81
2021/06/12 06:28:03;;;;;;;2.28;2.05;;;22.00;60.90;;;;;;3099491;28;20077;-80
2021/06/12 06:29:34;;;;;;;2.35;2.15;;;22.00;60.20;;;;;;3099416;28;20085;-79
2021/06/12 06:31:04;;;;;;;2.20;2.00;;;22.00;60.30;;;;;;3098748;28;20050;-80
2021/06/12 06:32:35;;;;;;;2.40;2.00;;;22.00;60.20;;;;;;3099043;28;20042;-80
2021/06/12 06:34:06;;;;;;;2.28;2.00;;;22.10;60.40;;;;;;3099772;28;20507;-80
2021/06/12 06:35:38;;;;;;;2.47;2.08;;;22.00;60.20;;;;;;3099271;28;20155;-79
2021/06/12 06:37:09;;;;;;;3.17;2.08;;;22.10;60.30;;;;;;3099224;28;20503;-80
2021/06/12 06:38:41;;;;;;;2.40;2.00;;;22.00;60.20;;;;;;3099346;28;20086;-80
2021/06/12 06:40:12;;;;;;;2.72;1.80;;;22.10;60.20;;;;;;3099742;28;20055;-80
2021/06/12 06:41:43;;;;;;;2.25;2.00;;;22.10;60.30;;;;;;3098921;28;20104;-82
2021/06/12 06:43:14;;;;;;;2.30;2.05;;;22.10;60.20;;;;;;3099695;28;20870;-81
2021/06/12 06:44:45;;;;;;;2.20;2.00;;;22.10;60.20;;;;;;3099736;28;20043;-80
2021/06/12 06:46:16;;;;;;;2.22;2.03;;;22.10;60.30;;;;;;3098930;28;20070;-80
2021/06/12 06:47:47;;;;;;;1.95;1.85;;;22.10;60.30;;;;;;3098706;28;20080;-79
2021/06/12 06:49:18;;;;;;;2.42;2.22;;;22.10;60.20;;;;;;3099682;28;20089;-81
2021/06/12 06:50:50;;;;;;;2.10;1.90;;;22.00;60.20;;;;;;3099663;28;20597;-80
2021/06/12 06:52:21;;;;;;;2.22;2.00;;;22.10;60.30;;;;;;3098955;28;20046;-81
2021/06/12 06:53:52;;;;;;;2.20;2.00;;;22.10;60.30;;;;;;3099383;28;20070;-81
2021/06/12 06:55:23;;;;;;;2.70;2.20;;;22.10;60.40;;;;;;3099306;28;20082;-80
2021/06/12 06:56:55;;;;;;;2.83;2.05;;;22.00;60.30;;;;;;3099124;28;20518;-80
2021/06/12 06:58:27;;;;;;;2.60;2.40;;;22.10;60.40;;;;;;3099088;28;20050;-78
2021/06/12 06:59:58;;;;;;;2.75;2.20;;;22.10;60.40;;;;;;3099238;28;20055;-81
2021/06/12 07:01:30;;;;;;;2.22;1.90;;;22.00;60.40;;;;;;3098609;28;20070;-80
2021/06/12 07:03:01;;;;;;;2.20;2.00;;;22.10;60.50;;;;;;3098893;28;20050;-79
2021/06/12 07:04:32;;;;;;;2.45;2.05;;;22.10;60.40;;;;;;3099301;28;20655;-81
2021/06/12 07:06:05;;;;;;;2.60;2.10;;;22.10;60.40;;;;;;3099524;28;20050;-80
2021/06/12 07:07:36;;;;;;;2.22;1.73;;;22.10;60.40;;;;;;3098181;28;20073;-80
2021/06/12 07:09:07;;;;;;;2.72;2.15;;;22.10;60.40;;;;;;3099361;28;20523;-80
2021/06/12 07:10:38;;;;;;;2.92;2.35;;;22.10;60.40;;;;;;3099187;28;20074;-81
2021/06/12 07:12:11;;;;;;;2.22;2.03;;;22.10;60.40;;;;;;3098867;28;20074;-80
2021/06/12 07:13:42;;;;;;;2.75;2.08;;;22.00;61.00;;;;;;3099117;28;20087;-81
2021/06/12 07:15:13;;;;;;;2.25;2.05;;;22.00;60.30;;;;;;3098219;28;20073;-80
2021/06/12 07:16:44;;;;;;;3.05;2.05;;;22.10;60.40;;;;;;3098811;28;20077;-80
2021/06/12 07:18:16;;;;;;;2.03;1.80;;;22.00;60.30;;;;;;3099246;28;20089;-81
2021/06/12 07:19:46;;;;;;;2.10;1.90;;;22.10;60.30;;;;;;3099161;28;20074;-80
2021/06/12 07:21:19;;;;;;;2.70;2.10;;;22.10;60.30;;;;;;3099075;28;20097;-81
2021/06/12 07:22:50;;;;;;;2.10;1.90;;;22.10;60.20;;;;;;3098617;28;20089;-81
2021/06/12 07:24:21;;;;;;;2.17;1.98;;;22.10;60.30;;;;;;3099511;28;20556;-81
2021/06/12 07:25:52;;;;;;;2.30;2.10;;;22.10;60.30;;;;;;3099129;28;20054;-81
2021/06/12 07:27:23;;;;;;;2.20;2.00;;;22.10;60.40;;;;;;3098639;28;20039;-79
2021/06/12 07:28:54;;;;;;;2.85;2.33;;;22.10;60.40;;;;;;3099180;28;20137;-81
2021/06/12 07:30:25;;;;;;;2.67;2.03;;;22.10;60.30;;;;;;3097993;28;20188;-80
2021/06/12 07:31:56;;;;;;;2.05;1.90;;;22.10;60.40;;;;;;3098371;28;20069;-80
2021/06/12 07:33:27;;;;;;;2.25;1.92;;;22.10;60.40;;;;;;3098814;28;20507;-79
2021/06/12 07:34:59;;;;;;;2.30;1.75;;;22.00;60.30;;;;;;3098826;28;20145;-79
2021/06/12 07:36:31;;;;;;;1.92;1.77;;;22.10;60.40;;;;;;3099125;28;20084;-80
2021/06/12 07:38:02;;;;;;;2.15;1.95;;;22.00;60.20;;;;;;3098511;28;20527;-81
2021/06/12 07:39:33;;;;;;;1.80;1.65;;;22.10;60.30;;;;;;3098565;28;20046;-79
2021/06/12 07:41:04;;;;;;;2.60;2.08;;;22.00;60.20;;;;;;3099160;28;20082;-81
2021/06/12 07:42:35;;;;;;;1.90;1.80;;;22.10;60.30;;;;;;3097996;28;20209;-80
2021/06/12 07:44:07;;;;;;;2.95;1.73;;;22.00;60.40;;;;;;3098869;28;20058;-79
2021/06/12 07:45:38;;;;;;;2.03;1.70;;;22.00;60.20;;;;;;3097891;28;20081;-80
2021/06/12 07:47:09;;;;;;;2.15;1.98;;;22.00;60.30;;;;;;3098567;28;20484;-81
2021/06/12 07:48:40;;;;;;;2.28;1.83;;;22.00;60.30;;;;;;3098903;28;20197;-82
2021/06/12 07:50:12;;;;;;;2.22;1.80;;;22.00;60.30;;;;;;3098527;28;20084;-80
2021/06/12 07:51:45;;;;;;;2.30;2.10;;;22.00;60.20;;;;;;3098198;28;20087;-81
2021/06/12 07:53:16;;;;;;;3.15;1.92;;;22.00;60.30;;;;;;3099949;28;20081;-82
2021/06/12 07:54:47;;;;;;;1.90;1.80;;;22.00;60.90;;;;;;3099383;28;20081;-80
2021/06/12 07:56:17;;;;;;;2.42;2.10;;;22.00;60.20;;;;;;3100055;28;20057;-81
2021/06/12 07:57:49;;;;;;;2.33;1.67;;;22.00;60.30;;;;;;3098600;28;20042;-80